sensor_id;sensor_type;location;lat;lon;timestamp;pressure;altitude;pressure_sealevel;temperature
65272;BMP280;51868;48.812;8.198;2022-09-09T00:02:01;99999.94;;;19.03
65272;BMP280;51868;48.812;8.198;2022-09-09T00:04:32;100009.06;;;19.02
65272;BMP280;51868;48.812;8.198;2022-09-09T00:07:03;100003.47;;;19.04
65272;BMP280;51868;48.812;8.198;2022-09-09T00:09:38;99997.13;;;19.05
65272;BMP280;51868;48.812;8.198;2022-09-09T00:12:13;100001.38;;;19.08
65272;BMP280;51868;48.812;8.198;2022-09-09T00:14:48;99999.28;;;19.09
65272;BMP280;51868;48.812;8.198;2022-09-09T00:17:28;99994.31;;;19.03
65272;BMP280;51868;48.812;8.198;2022-09-09T00:20:03;100004.13;;;18.98
65272;BMP280;51868;48.812;8.198;2022-09-09T00:22:35;100011.88;;;18.96
65272;BMP280;51868;48.812;8.198;2022-09-09T00:25:14;100009.03;;;18.93
65272;BMP280;51868;48.812;8.198;2022-09-09T00:27:46;99997.06;;;18.97
65272;BMP280;51868;48.812;8.198;2022-09-09T00:30:18;100007.66;;;19.01
65272;BMP280;51868;48.812;8.198;2022-09-09T00:32:51;100010.47;;;18.99
65272;BMP280;51868;48.812;8.198;2022-09-09T00:35:23;100007.66;;;18.99
65272;BMP280;51868;48.812;8.198;2022-09-09T00:37:54;100013.28;;;18.99
65272;BMP280;51868;48.812;8.198;2022-09-09T00:40:27;100016.06;;;18.97
65272;BMP280;51868;48.812;8.198;2022-09-09T00:43:16;100013.94;;;18.93
65272;BMP280;51868;48.812;8.198;2022-09-09T00:46:14;100017.41;;;18.89
65272;BMP280;51868;48.812;8.198;2022-09-09T00:48:59;100025.09;;;18.81
65272;BMP280;51868;48.812;8.198;2022-09-09T00:51:37;100034.19;;;18.75
65272;BMP280;51868;48.812;8.198;2022-09-09T00:54:24;100041.91;;;18.75
65272;BMP280;51868;48.812;8.198;2022-09-09T00:57:03;100055.94;;;18.73
65272;BMP280;51868;48.812;8.198;2022-09-09T00:59:44;100070.59;;;18.65
65272;BMP280;51868;48.812;8.198;2022-09-09T01:02:21;100071.91;;;18.56
65272;BMP280;51868;48.812;8.198;2022-09-09T01:04:53;100069.00;;;18.46
65272;BMP280;51868;48.812;8.198;2022-09-09T01:07:21;100071.75;;;18.39
65272;BMP280;51868;48.812;8.198;2022-09-09T01:09:55;100085.75;;;18.35
65272;BMP280;51868;48.812;8.198;2022-09-09T01:12:28;100075.84;;;18.30
65272;BMP280;51868;48.812;8.198;2022-09-09T01:15:03;100066.66;;;18.26
65272;BMP280;51868;48.812;8.198;2022-09-09T01:17:46;100077.13;;;18.17
65272;BMP280;51868;48.812;8.198;2022-09-09T01:20:20;100069.38;;;18.13
65272;BMP280;51868;48.812;8.198;2022-09-09T01:23:12;100063.00;;;18.11
65272;BMP280;51868;48.812;8.198;2022-09-09T01:26:09;100067.19;;;18.06
65272;BMP280;51868;48.812;8.198;2022-09-09T01:28:39;100063.66;;;18.07
65272;BMP280;51868;48.812;8.198;2022-09-09T01:31:09;100050.34;;;18.08
65272;BMP280;51868;48.812;8.198;2022-09-09T01:33:38;100052.47;;;18.09
65272;BMP280;51868;48.812;8.198;2022-09-09T01:36:09;100054.56;;;18.11
65272;BMP280;51868;48.812;8.198;2022-09-09T01:38:38;100046.84;;;18.11
65272;BMP280;51868;48.812;8.198;2022-09-09T01:41:07;100044.03;;;18.09
65272;BMP280;51868;48.812;8.198;2022-09-09T01:43:37;100036.28;;;18.06
65272;BMP280;51868;48.812;8.198;2022-09-09T01:46:05;100034.13;;;18.02
65272;BMP280;51868;48.812;8.198;2022-09-09T01:48:35;100041.06;;;17.97
65272;BMP280;51868;48.812;8.198;2022-09-09T01:51:03;100023.47;;;17.90
65272;BMP280;51868;48.812;8.198;2022-09-09T01:53:32;100029.72;;;17.85
65272;BMP280;51868;48.812;8.198;2022-09-09T01:56:13;100022.00;;;17.85
65272;BMP280;51868;48.812;8.198;2022-09-09T01:58:55;100017.09;;;17.88
65272;BMP280;51868;48.812;8.198;2022-09-09T02:01:37;100019.97;;;17.92
65272;BMP280;51868;48.812;8.198;2022-09-09T02:04:18;100020.66;;;17.92
65272;BMP280;51868;48.812;8.198;2022-09-09T02:06:55;100010.13;;;17.91
65272;BMP280;51868;48.812;8.198;2022-09-09T02:09:26;100005.94;;;17.92
65272;BMP280;51868;48.812;8.198;2022-09-09T02:12:04;100010.16;;;17.93
65272;BMP280;51868;48.812;8.198;2022-09-09T02:14:38;100002.38;;;17.91
65272;BMP280;51868;48.812;8.198;2022-09-09T02:17:13;99988.34;;;17.91
65272;BMP280;51868;48.812;8.198;2022-09-09T02:19:45;99989.13;;;17.94
65272;BMP280;51868;48.812;8.198;2022-09-09T02:22:16;99996.81;;;17.93
65272;BMP280;51868;48.812;8.198;2022-09-09T02:24:47;99996.78;;;17.89
65272;BMP280;51868;48.812;8.198;2022-09-09T02:27:15;99993.94;;;17.85
65272;BMP280;51868;48.812;8.198;2022-09-09T02:29:46;99979.09;;;17.79
65272;BMP280;51868;48.812;8.198;2022-09-09T02:32:17;99988.22;;;17.79
65272;BMP280;51868;48.812;8.198;2022-09-09T02:34:49;99990.97;;;17.73
65272;BMP280;51868;48.812;8.198;2022-09-09T02:37:20;99994.41;;;17.67
65272;BMP280;51868;48.812;8.198;2022-09-09T02:39:51;99983.84;;;17.66
65272;BMP280;51868;48.812;8.198;2022-09-09T02:42:19;99981.00;;;17.62
65272;BMP280;51868;48.812;8.198;2022-09-09T02:44:51;99978.19;;;17.62
65272;BMP280;51868;48.812;8.198;2022-09-09T02:47:27;99978.25;;;17.64
65272;BMP280;51868;48.812;8.198;2022-09-09T02:50:05;99978.97;;;17.66
65272;BMP280;51868;48.812;8.198;2022-09-09T02:55:14;99990.22;;;17.71
65272;BMP280;51868;48.812;8.198;2022-09-09T02:57:45;99986.06;;;17.72
65272;BMP280;51868;48.812;8.198;2022-09-09T03:00:16;99985.34;;;17.71
65272;BMP280;51868;48.812;8.198;2022-09-09T03:02:44;99985.34;;;17.71
65272;BMP280;51868;48.812;8.198;2022-09-09T03:05:12;99992.34;;;17.72
65272;BMP280;51868;48.812;8.198;2022-09-09T03:07:40;99988.16;;;17.73
65272;BMP280;51868;48.812;8.198;2022-09-09T03:10:08;99977.66;;;17.74
65272;BMP280;51868;48.812;8.198;2022-09-09T03:12:37;99991.00;;;17.75
65272;BMP280;51868;48.812;8.198;2022-09-09T03:15:06;99987.53;;;17.77
65272;BMP280;51868;48.812;8.198;2022-09-09T03:17:35;99984.72;;;17.79
65272;BMP280;51868;48.812;8.198;2022-09-09T03:20:04;99979.09;;;17.79
65272;BMP280;51868;48.812;8.198;2022-09-09T03:22:32;99977.69;;;17.78
65272;BMP280;51868;48.812;8.198;2022-09-09T03:25:00;99987.47;;;17.75
65272;BMP280;51868;48.812;8.198;2022-09-09T03:27:30;99985.28;;;17.67
65272;BMP280;51868;48.812;8.198;2022-09-09T03:30:00;99982.41;;;17.61
65272;BMP280;51868;48.812;8.198;2022-09-09T03:32:29;99991.53;;;17.61
65272;BMP280;51868;48.812;8.198;2022-09-09T03:34:59;99988.00;;;17.61
65272;BMP280;51868;48.812;8.198;2022-09-09T03:37:26;99985.19;;;17.61
65272;BMP280;51868;48.812;8.198;2022-09-09T03:39:54;99978.19;;;17.62
65272;BMP280;51868;48.812;8.198;2022-09-09T03:42:22;99983.81;;;17.62
65272;BMP280;51868;48.812;8.198;2022-09-09T03:44:52;99974.00;;;17.63
65272;BMP280;51868;48.812;8.198;2022-09-09T03:47:21;99979.59;;;17.63
65272;BMP280;51868;48.812;8.198;2022-09-09T03:49:50;99985.25;;;17.65
65272;BMP280;51868;48.812;8.198;2022-09-09T03:52:20;99991.56;;;17.65
65272;BMP280;51868;48.812;8.198;2022-09-09T03:54:49;99983.09;;;17.61
65272;BMP280;51868;48.812;8.198;2022-09-09T03:57:17;99982.41;;;17.61
65272;BMP280;51868;48.812;8.198;2022-09-09T03:59:51;99986.59;;;17.60
65272;BMP280;51868;48.812;8.198;2022-09-09T04:02:19;99997.81;;;17.60
65272;BMP280;51868;48.812;8.198;2022-09-09T04:04:47;100000.59;;;17.58
65272;BMP280;51868;48.812;8.198;2022-09-09T04:07:16;99994.97;;;17.58
65272;BMP280;51868;48.812;8.198;2022-09-09T04:09:45;100006.19;;;17.56
65272;BMP280;51868;48.812;8.198;2022-09-09T04:12:13;99989.31;;;17.54
65272;BMP280;51868;48.812;8.198;2022-09-09T04:14:43;99994.22;;;17.53
65272;BMP280;51868;48.812;8.198;2022-09-09T04:17:10;99993.50;;;17.53
65272;BMP280;51868;48.812;8.198;2022-09-09T04:19:39;100000.47;;;17.50
65272;BMP280;51868;48.812;8.198;2022-09-09T04:22:08;99998.41;;;17.50
65272;BMP280;51868;48.812;8.198;2022-09-09T04:24:38;99999.88;;;17.55
65272;BMP280;51868;48.812;8.198;2022-09-09T04:27:15;99999.22;;;17.61
65272;BMP280;51868;48.812;8.198;2022-09-09T04:29:43;99999.28;;;17.65
65272;BMP280;51868;48.812;8.198;2022-09-09T04:32:13;100006.28;;;17.64
65272;BMP280;51868;48.812;8.198;2022-09-09T04:34:41;100013.97;;;17.61
65272;BMP280;51868;48.812;8.198;2022-09-09T04:37:09;100017.53;;;17.64
65272;BMP280;51868;48.812;8.198;2022-09-09T04:39:37;100010.50;;;17.65
65272;BMP280;51868;48.812;8.198;2022-09-09T04:42:05;100019.66;;;17.67
65272;BMP280;51868;48.812;8.198;2022-09-09T04:44:34;100020.34;;;17.66
65272;BMP280;51868;48.812;8.198;2022-09-09T04:47:05;100020.31;;;17.64
65272;BMP280;51868;48.812;8.198;2022-09-09T04:49:36;100019.63;;;17.65
65272;BMP280;51868;48.812;8.198;2022-09-09T04:52:04;100009.13;;;17.66
65272;BMP280;51868;48.812;8.198;2022-09-09T04:54:34;100018.94;;;17.67
65272;BMP280;51868;48.812;8.198;2022-09-09T04:57:04;100019.63;;;17.65
65272;BMP280;51868;48.812;8.198;2022-09-09T04:59:32;100020.34;;;17.68
65272;BMP280;51868;48.812;8.198;2022-09-09T05:02:01;100028.75;;;17.66
65272;BMP280;51868;48.812;8.198;2022-09-09T05:04:29;100018.94;;;17.65
65272;BMP280;51868;48.812;8.198;2022-09-09T05:06:57;100030.16;;;17.65
65272;BMP280;51868;48.812;8.198;2022-09-09T05:09:29;100023.16;;;17.66
65272;BMP280;51868;48.812;8.198;2022-09-09T05:11:57;100019.69;;;17.70
65272;BMP280;51868;48.812;8.198;2022-09-09T05:14:24;100024.63;;;17.71
65272;BMP280;51868;48.812;8.198;2022-09-09T05:16:53;100029.53;;;17.71
65272;BMP280;51868;48.812;8.198;2022-09-09T05:19:25;100034.44;;;17.70
65272;BMP280;51868;48.812;8.198;2022-09-09T05:21:54;100035.78;;;17.67
65272;BMP280;51868;48.812;8.198;2022-09-09T05:24:22;100033.00;;;17.69
65272;BMP280;51868;48.812;8.198;2022-09-09T05:26:51;100033.69;;;17.67
65272;BMP280;51868;48.812;8.198;2022-09-09T05:29:20;100039.28;;;17.65
65272;BMP280;51868;48.812;8.198;2022-09-09T05:31:50;100030.13;;;17.63
65272;BMP280;51868;48.812;8.198;2022-09-09T05:34:18;100038.50;;;17.61
65272;BMP280;51868;48.812;8.198;2022-09-09T05:36:49;100039.91;;;17.60
65272;BMP280;51868;48.812;8.198;2022-09-09T05:39:17;100038.47;;;17.59
65272;BMP280;51868;48.812;8.198;2022-09-09T05:41:48;100046.25;;;17.62
65272;BMP280;51868;48.812;8.198;2022-09-09T05:44:20;100053.31;;;17.67
65272;BMP280;51868;48.812;8.198;2022-09-09T05:46:49;100054.75;;;17.69
65272;BMP280;51868;48.812;8.198;2022-09-09T05:49:17;100050.56;;;17.70
65272;BMP280;51868;48.812;8.198;2022-09-09T05:51:45;100049.91;;;17.73
65272;BMP280;51868;48.812;8.198;2022-09-09T05:54:16;100055.56;;;17.77
65272;BMP280;51868;48.812;8.198;2022-09-09T05:56:44;100045.06;;;17.78
65272;BMP280;51868;48.812;8.198;2022-09-09T05:59:17;100052.81;;;17.81
65272;BMP280;51868;48.812;8.198;2022-09-09T06:01:45;100051.44;;;17.84
65272;BMP280;51868;48.812;8.198;2022-09-09T06:04:15;100052.16;;;17.87
65272;BMP280;51868;48.812;8.198;2022-09-09T06:06:45;100052.25;;;17.91
65272;BMP280;51868;48.812;8.198;2022-09-09T06:09:12;100051.59;;;17.95
65272;BMP280;51868;48.812;8.198;2022-09-09T06:11:43;100055.81;;;17.96
65272;BMP280;51868;48.812;8.198;2022-09-09T06:14:12;100048.09;;;17.96
65272;BMP280;51868;48.812;8.198;2022-09-09T06:16:42;100044.59;;;17.98
65272;BMP280;51868;48.812;8.198;2022-09-09T06:19:13;100055.81;;;17.98
65272;BMP280;51868;48.812;8.198;2022-09-09T06:21:42;100052.97;;;17.93
65272;BMP280;51868;48.812;8.198;2022-09-09T06:24:10;100053.69;;;17.94
65272;BMP280;51868;48.812;8.198;2022-09-09T06:26:40;100046.69;;;17.95
65272;BMP280;51868;48.812;8.198;2022-09-09T06:29:10;100053.00;;;17.98
65272;BMP280;51868;48.812;8.198;2022-09-09T06:31:38;100047.38;;;17.96
65272;BMP280;51868;48.812;8.198;2022-09-09T06:34:08;100055.13;;;17.97
65272;BMP280;51868;48.812;8.198;2022-09-09T06:36:38;100051.59;;;17.97
65272;BMP280;51868;48.812;8.198;2022-09-09T06:39:08;100044.63;;;18.02
65272;BMP280;51868;48.812;8.198;2022-09-09T06:41:40;100046.78;;;18.05
65272;BMP280;51868;48.812;8.198;2022-09-09T06:44:28;100041.25;;;18.11
65272;BMP280;51868;48.812;8.198;2022-09-09T06:47:03;100044.75;;;18.12
65272;BMP280;51868;48.812;8.198;2022-09-09T06:49:31;100040.56;;;18.13
65272;BMP280;51868;48.812;8.198;2022-09-09T06:52:03;100050.34;;;18.10
65272;BMP280;51868;48.812;8.198;2022-09-09T06:54:31;100044.00;;;18.07
65272;BMP280;51868;48.812;8.198;2022-09-09T06:57:02;100050.34;;;18.08
65272;BMP280;51868;48.812;8.198;2022-09-09T06:59:51;100051.75;;;18.09
65272;BMP280;51868;48.812;8.198;2022-09-09T07:02:21;100063.00;;;18.11
65272;BMP280;51868;48.812;8.198;2022-09-09T07:04:49;100057.47;;;18.17
65272;BMP280;51868;48.812;8.198;2022-09-09T07:07:17;100054.69;;;18.21
65272;BMP280;51868;48.812;8.198;2022-09-09T07:09:45;100061.81;;;18.30
65272;BMP280;51868;48.812;8.198;2022-09-09T07:12:15;100060.63;;;18.48
65272;BMP280;51868;48.812;8.198;2022-09-09T07:14:46;100059.22;;;18.49
65272;BMP280;51868;48.812;8.198;2022-09-09T07:17:15;100057.88;;;18.56
65272;BMP280;51868;48.812;8.198;2022-09-09T07:19:43;100056.84;;;18.96
65272;BMP280;51868;48.812;8.198;2022-09-09T07:22:11;100061.88;;;19.13
65272;BMP280;51868;48.812;8.198;2022-09-09T07:24:39;100061.13;;;19.03
65272;BMP280;51868;48.812;8.198;2022-09-09T07:27:06;100065.25;;;18.93
65272;BMP280;51868;48.812;8.198;2022-09-09T07:29:44;100066.63;;;18.88
65272;BMP280;51868;48.812;8.198;2022-09-09T07:32:23;100056.94;;;19.08
65272;BMP280;51868;48.812;8.198;2022-09-09T07:35:05;100048.50;;;19.10
65272;BMP280;51868;48.812;8.198;2022-09-09T07:37:38;100052.75;;;19.13
65272;BMP280;51868;48.812;8.198;2022-09-09T07:40:16;100050.22;;;19.58
65272;BMP280;51868;48.812;8.198;2022-09-09T07:42:44;100059.56;;;20.03
65272;BMP280;51868;48.812;8.198;2022-09-09T07:45:12;100051.94;;;20.51
65272;BMP280;51868;48.812;8.198;2022-09-09T07:47:42;100061.81;;;20.92
65272;BMP280;51868;48.812;8.198;2022-09-09T07:50:10;100068.13;;;21.21
65272;BMP280;51868;48.812;8.198;2022-09-09T07:52:44;100059.63;;;21.34
65272;BMP280;51868;48.812;8.198;2022-09-09T07:55:12;100060.94;;;21.63
65272;BMP280;51868;48.812;8.198;2022-09-09T07:57:43;100064.34;;;21.92
65272;BMP280;51868;48.812;8.198;2022-09-09T08:00:12;100079.06;;;22.17
65272;BMP280;51868;48.812;8.198;2022-09-09T08:02:45;100069.97;;;22.02
65272;BMP280;51868;48.812;8.198;2022-09-09T08:05:17;100088.41;;;21.85
65272;BMP280;51868;48.812;8.198;2022-09-09T08:07:45;100092.03;;;21.57
65272;BMP280;51868;48.812;8.198;2022-09-09T08:10:13;100090.00;;;21.21
65272;BMP280;51868;48.812;8.198;2022-09-09T08:12:42;100091.41;;;21.01
65272;BMP280;51868;48.812;8.198;2022-09-09T08:15:30;100092.16;;;20.84
65272;BMP280;51868;48.812;8.198;2022-09-09T08:18:00;100091.41;;;20.71
65272;BMP280;51868;48.812;8.198;2022-09-09T08:20:29;100098.47;;;20.66
65272;BMP280;51868;48.812;8.198;2022-09-09T08:22:56;100099.16;;;20.66
65272;BMP280;51868;48.812;8.198;2022-09-09T08:25:25;100097.03;;;20.63
65272;BMP280;51868;48.812;8.198;2022-09-09T08:27:53;100099.16;;;20.62
65272;BMP280;51868;48.812;8.198;2022-09-09T08:30:20;100102.69;;;20.59
65272;BMP280;51868;48.812;8.198;2022-09-09T08:32:50;100112.53;;;20.58
65272;BMP280;51868;48.812;8.198;2022-09-09T08:35:26;100115.34;;;20.50
65272;BMP280;51868;48.812;8.198;2022-09-09T08:37:59;100116.03;;;20.44
65272;BMP280;51868;48.812;8.198;2022-09-09T08:40:30;100119.53;;;20.36
65272;BMP280;51868;48.812;8.198;2022-09-09T08:43:04;100128.69;;;20.29
65272;BMP280;51868;48.812;8.198;2022-09-09T08:45:35;100122.31;;;20.26
65272;BMP280;51868;48.812;8.198;2022-09-09T08:48:15;100113.16;;;20.30
65272;BMP280;51868;48.812;8.198;2022-09-09T08:50:50;100120.22;;;20.33
65272;BMP280;51868;48.812;8.198;2022-09-09T08:53:23;100118.13;;;20.33
65272;BMP280;51868;48.812;8.198;2022-09-09T08:55:54;100116.00;;;20.34
65272;BMP280;51868;48.812;8.198;2022-09-09T08:58:26;100113.91;;;20.40
65272;BMP280;51868;48.812;8.198;2022-09-09T09:01:09;100111.09;;;20.44
65272;BMP280;51868;48.812;8.198;2022-09-09T09:03:54;100104.78;;;20.64
65272;BMP280;51868;48.812;8.198;2022-09-09T09:06:39;100106.94;;;20.76
65272;BMP280;51868;48.812;8.198;2022-09-09T09:09:16;100097.06;;;20.79
65272;BMP280;51868;48.812;8.198;2022-09-09T09:11:53;100097.75;;;20.90
65272;BMP280;51868;48.812;8.198;2022-09-09T09:14:25;100095.66;;;20.92
65272;BMP280;51868;48.812;8.198;2022-09-09T09:16:59;100103.41;;;20.92
65272;BMP280;51868;48.812;8.198;2022-09-09T09:19:33;100102.00;;;20.99
65272;BMP280;51868;48.812;8.198;2022-09-09T09:22:10;100111.16;;;21.06
65272;BMP280;51868;48.812;8.198;2022-09-09T09:25:22;100100.56;;;21.37
65272;BMP280;51868;48.812;8.198;2022-09-09T09:28:12;100115.94;;;21.85
65272;BMP280;51868;48.812;8.198;2022-09-09T09:30:47;100100.41;;;21.86
65272;BMP280;51868;48.812;8.198;2022-09-09T09:33:41;100105.41;;;21.71
65272;BMP280;51868;48.812;8.198;2022-09-09T09:36:15;100105.44;;;21.52
65272;BMP280;51868;48.812;8.198;2022-09-09T09:39:03;100115.38;;;21.37
65272;BMP280;51868;48.812;8.198;2022-09-09T09:41:56;100111.84;;;21.24
65272;BMP280;51868;48.812;8.198;2022-09-09T09:44:32;100117.50;;;21.20
65272;BMP280;51868;48.812;8.198;2022-09-09T09:47:13;100118.22;;;21.21
65272;BMP280;51868;48.812;8.198;2022-09-09T09:49:51;100119.63;;;21.20
65272;BMP280;51868;48.812;8.198;2022-09-09T09:52:22;100122.44;;;21.18
65272;BMP280;51868;48.812;8.198;2022-09-09T09:54:55;100125.28;;;21.12
65272;BMP280;51868;48.812;8.198;2022-09-09T09:57:26;100125.28;;;21.04
65272;BMP280;51868;48.812;8.198;2022-09-09T10:00:15;100125.25;;;20.97
65272;BMP280;51868;48.812;8.198;2022-09-09T10:02:45;100118.19;;;20.90
65272;BMP280;51868;48.812;8.198;2022-09-09T10:05:26;100117.50;;;20.86
65272;BMP280;51868;48.812;8.198;2022-09-09T10:08:05;100122.44;;;20.85
65272;BMP280;51868;48.812;8.198;2022-09-09T10:10:50;100109.75;;;20.80
65272;BMP280;51868;48.812;8.198;2022-09-09T10:13:28;100108.34;;;20.89
65272;BMP280;51868;48.812;8.198;2022-09-09T10:16:09;100114.00;;;21.08
65272;BMP280;51868;48.812;8.198;2022-09-09T10:18:44;100111.16;;;21.16
65272;BMP280;51868;48.812;8.198;2022-09-09T10:21:23;100106.88;;;21.45
65272;BMP280;51868;48.812;8.198;2022-09-09T10:24:17;100104.00;;;21.74
65272;BMP280;51868;48.812;8.198;2022-09-09T10:26:55;100095.28;;;22.21
65272;BMP280;51868;48.812;8.198;2022-09-09T10:29:40;100101.56;;;22.36
65272;BMP280;51868;48.812;8.198;2022-09-09T10:32:31;100094.50;;;22.37
65272;BMP280;51868;48.812;8.198;2022-09-09T10:35:08;100093.09;;;22.34
65272;BMP280;51868;48.812;8.198;2022-09-09T10:40:38;100100.66;;;22.64
65272;BMP280;51868;48.812;8.198;2022-09-09T10:43:25;100102.16;;;22.52
65272;BMP280;51868;48.812;8.198;2022-09-09T10:46:04;100107.16;;;22.46
65272;BMP280;51868;48.812;8.198;2022-09-09T10:48:44;100093.66;;;22.54
65272;BMP280;51868;48.812;8.198;2022-09-09T10:51:29;100104.84;;;22.71
65272;BMP280;51868;48.812;8.198;2022-09-09T10:54:12;100086.16;;;23.06
65272;BMP280;51868;48.812;8.198;2022-09-09T10:56:44;100080.22;;;23.31
65272;BMP280;51868;48.812;8.198;2022-09-09T10:59:19;100091.22;;;23.61
65272;BMP280;51868;48.812;8.198;2022-09-09T11:01:53;100076.84;;;23.78
65272;BMP280;51868;48.812;8.198;2022-09-09T11:04:28;100070.88;;;24.00
65272;BMP280;51868;48.812;8.198;2022-09-09T11:07:00;100079.66;;;24.29
65272;BMP280;51868;48.812;8.198;2022-09-09T11:09:43;100083.78;;;24.38
65272;BMP280;51868;48.812;8.198;2022-09-09T11:12:20;100080.72;;;24.07
65272;BMP280;51868;48.812;8.198;2022-09-09T11:14:54;100088.47;;;24.11
65272;BMP280;51868;48.812;8.198;2022-09-09T11:17:30;100066.25;;;24.26
65272;BMP280;51868;48.812;8.198;2022-09-09T11:20:10;100074.97;;;24.11
65272;BMP280;51868;48.812;8.198;2022-09-09T11:22:44;100073.84;;;23.90
65272;BMP280;51868;48.812;8.198;2022-09-09T11:25:19;100067.03;;;23.71
65272;BMP280;51868;48.812;8.198;2022-09-09T11:27:59;100070.78;;;23.53
65272;BMP280;51868;48.812;8.198;2022-09-09T11:30:39;100072.56;;;23.81
65272;BMP280;51868;48.812;8.198;2022-09-09T11:36:33;100066.31;;;24.22
65272;BMP280;51868;48.812;8.198;2022-09-09T11:39:18;100054.59;;;24.46
65272;BMP280;51868;48.812;8.198;2022-09-09T11:41:51;100062.81;;;24.64
65272;BMP280;51868;48.812;8.198;2022-09-09T11:44:27;100064.72;;;24.76
65272;BMP280;51868;48.812;8.198;2022-09-09T11:46:57;100063.47;;;24.65
65272;BMP280;51868;48.812;8.198;2022-09-09T11:49:27;100054.66;;;24.40
65272;BMP280;51868;48.812;8.198;2022-09-09T11:51:55;100061.03;;;24.42
65272;BMP280;51868;48.812;8.198;2022-09-09T11:54:30;100054.66;;;24.42
65272;BMP280;51868;48.812;8.198;2022-09-09T11:56:59;100056.19;;;24.35
65272;BMP280;51868;48.812;8.198;2022-09-09T11:59:28;100052.88;;;24.20
65272;BMP280;51868;48.812;8.198;2022-09-09T12:02:09;100040.28;;;24.11
65272;BMP280;51868;48.812;8.198;2022-09-09T12:04:42;100058.25;;;23.91
65272;BMP280;51868;48.812;8.198;2022-09-09T12:07:35;100059.22;;;23.71
65272;BMP280;51868;48.812;8.198;2022-09-09T12:10:20;100041.66;;;23.60
65272;BMP280;51868;48.812;8.198;2022-09-09T12:12:49;100041.00;;;23.58
65272;BMP280;51868;48.812;8.198;2022-09-09T12:15:24;100034.13;;;23.41
65272;BMP280;51868;48.812;8.198;2022-09-09T12:17:57;100034.97;;;23.27
65272;BMP280;51868;48.812;8.198;2022-09-09T12:20:33;100037.25;;;23.14
65272;BMP280;51868;48.812;8.198;2022-09-09T12:23:20;100057.94;;;22.96
65272;BMP280;51868;48.812;8.198;2022-09-09T12:26:00;100075.09;;;22.78
65272;BMP280;51868;48.812;8.198;2022-09-09T12:28:41;100077.34;;;22.63
65272;BMP280;51868;48.812;8.198;2022-09-09T12:31:15;100063.28;;;22.53
65272;BMP280;51868;48.812;8.198;2022-09-09T12:33:48;100051.63;;;22.90
65272;BMP280;51868;48.812;8.198;2022-09-09T12:36:19;100035.13;;;23.12
65272;BMP280;51868;48.812;8.198;2022-09-09T12:38:48;100029.34;;;23.25
65272;BMP280;51868;48.812;8.198;2022-09-09T12:41:21;100031.53;;;23.18
65272;BMP280;51868;48.812;8.198;2022-09-09T12:44:03;100018.19;;;23.08
65272;BMP280;51868;48.812;8.198;2022-09-09T12:46:36;100021.81;;;23.01
65272;BMP280;51868;48.812;8.198;2022-09-09T12:49:31;100009.50;;;23.27
65272;BMP280;51868;48.812;8.198;2022-09-09T12:52:03;100003.47;;;23.57
65272;BMP280;51868;48.812;8.198;2022-09-09T12:54:36;99995.88;;;23.93
65272;BMP280;51868;48.812;8.198;2022-09-09T12:57:04;99994.03;;;24.20
65272;BMP280;51868;48.812;8.198;2022-09-09T12:59:39;100001.94;;;24.12
65272;BMP280;51868;48.812;8.198;2022-09-09T13:02:17;100019.28;;;24.37
65272;BMP280;51868;48.812;8.198;2022-09-09T13:04:48;100008.91;;;24.64
65272;BMP280;51868;48.812;8.198;2022-09-09T13:07:17;100001.88;;;24.59
65272;BMP280;51868;48.812;8.198;2022-09-09T13:09:48;100009.69;;;24.61
65272;BMP280;51868;48.812;8.198;2022-09-09T13:12:19;99992.34;;;24.38
65272;BMP280;51868;48.812;8.198;2022-09-09T13:14:51;100004.03;;;24.17
65272;BMP280;51868;48.812;8.198;2022-09-09T13:17:24;100009.84;;;24.05
65272;BMP280;51868;48.812;8.198;2022-09-09T13:20:14;100004.31;;;23.99
65272;BMP280;51868;48.812;8.198;2022-09-09T13:22:43;99999.56;;;23.85
65272;BMP280;51868;48.812;8.198;2022-09-09T13:25:19;100017.47;;;23.70
65272;BMP280;51868;48.812;8.198;2022-09-09T13:27:54;100001.22;;;23.64
65272;BMP280;51868;48.812;8.198;2022-09-09T13:30:25;100009.72;;;23.64
65272;BMP280;51868;48.812;8.198;2022-09-09T13:33:20;100016.09;;;23.67
65272;BMP280;51868;48.812;8.198;2022-09-09T13:35:57;99997.44;;;23.84
65272;BMP280;51868;48.812;8.198;2022-09-09T13:38:30;99994.28;;;24.06
65272;BMP280;51868;48.812;8.198;2022-09-09T13:41:00;99992.19;;;24.03
65272;BMP280;51868;48.812;8.198;2022-09-09T13:43:31;100009.41;;;23.88
65272;BMP280;51868;48.812;8.198;2022-09-09T13:46:04;100002.16;;;24.00
65272;BMP280;51868;48.812;8.198;2022-09-09T13:48:36;100011.91;;;24.11
65272;BMP280;51868;48.812;8.198;2022-09-09T13:53:47;99996.88;;;24.18
65272;BMP280;51868;48.812;8.198;2022-09-09T13:56:18;100002.72;;;24.10
65272;BMP280;51868;48.812;8.198;2022-09-09T13:58:50;99983.06;;;23.96
65272;BMP280;51868;48.812;8.198;2022-09-09T14:01:20;100006.75;;;23.78
65272;BMP280;51868;48.812;8.198;2022-09-09T14:03:57;99994.75;;;23.74
65272;BMP280;51868;48.812;8.198;2022-09-09T14:06:27;100001.84;;;23.73
65272;BMP280;51868;48.812;8.198;2022-09-09T14:08:58;99998.38;;;23.66
65272;BMP280;51868;48.812;8.198;2022-09-09T14:11:28;99989.97;;;23.62
65272;BMP280;51868;48.812;8.198;2022-09-09T14:13:55;99994.84;;;23.65
65272;BMP280;51868;48.812;8.198;2022-09-09T14:16:27;99993.50;;;23.60
65272;BMP280;51868;48.812;8.198;2022-09-09T14:18:59;99984.47;;;23.48
65272;BMP280;51868;48.812;8.198;2022-09-09T14:21:28;99997.38;;;23.34
65272;BMP280;51868;48.812;8.198;2022-09-09T14:23:56;99997.53;;;23.22
65272;BMP280;51868;48.812;8.198;2022-09-09T14:26:25;100002.63;;;23.09
65272;BMP280;51868;48.812;8.198;2022-09-09T14:28:55;99993.47;;;23.07
65272;BMP280;51868;48.812;8.198;2022-09-09T14:31:24;99998.41;;;23.04
65272;BMP280;51868;48.812;8.198;2022-09-09T14:33:54;100004.16;;;22.98
65272;BMP280;51868;48.812;8.198;2022-09-09T14:36:22;100001.34;;;22.96
65272;BMP280;51868;48.812;8.198;2022-09-09T14:38:54;100007.78;;;22.91
65272;BMP280;51868;48.812;8.198;2022-09-09T14:41:21;100002.88;;;22.85
65272;BMP280;51868;48.812;8.198;2022-09-09T14:43:50;100007.19;;;22.80
65272;BMP280;51868;48.812;8.198;2022-09-09T14:46:20;100008.66;;;22.75